sensor_id;sensor_type;location;lat;lon;timestamp;pressure;altitude;pressure_sealevel;temperature;humidity
80945;BME280;70400;50.934;11.590;2023-12-20T00:00:06;99839.38;;;5.16;86.21
80945;BME280;70400;50.934;11.590;2023-12-20T00:00:57;99840.22;;;5.16;86.09
80945;BME280;70400;50.934;11.590;2023-12-20T00:01:48;99840.34;;;5.15;86.10
80945;BME280;70400;50.934;11.590;2023-12-20T00:02:40;99835.56;;;5.09;85.85
80945;BME280;70400;50.934;11.590;2023-12-20T00:03:31;99826.31;;;5.16;86.17
80945;BME280;70400;50.934;11.590;2023-12-20T00:04:32;99828.84;;;5.17;86.04
80945;BME280;70400;50.934;11.590;2023-12-20T00:05:23;99824.34;;;5.19;86.12
80945;BME280;70400;50.934;11.590;2023-12-20T00:06:14;99824.53;;;5.16;86.40
80945;BME280;70400;50.934;11.590;2023-12-20T00:07:05;99829.34;;;5.22;86.29
80945;BME280;70400;50.934;11.590;2023-12-20T00:07:56;99827.78;;;5.20;86.31
80945;BME280;70400;50.934;11.590;2023-12-20T00:08:46;99822.66;;;5.18;86.10
80945;BME280;70400;50.934;11.590;2023-12-20T00:09:38;99820.16;;;5.17;86.02
80945;BME280;70400;50.934;11.590;2023-12-20T00:10:29;99817.56;;;5.17;86.50
80945;BME280;70400;50.934;11.590;2023-12-20T00:11:20;99818.63;;;5.14;86.59
80945;BME280;70400;50.934;11.590;2023-12-20T00:12:11;99815.88;;;5.16;86.25
80945;BME280;70400;50.934;11.590;2023-12-20T00:13:02;99822.88;;;5.15;86.20
80945;BME280;70400;50.934;11.590;2023-12-20T00:13:53;99815.38;;;5.11;86.43
80945;BME280;70400;50.934;11.590;2023-12-20T00:14:43;99808.25;;;5.13;85.72
80945;BME280;70400;50.934;11.590;2023-12-20T00:15:34;99816.25;;;5.22;85.83
80945;BME280;70400;50.934;11.590;2023-12-20T00:16:25;99812.31;;;5.17;85.91
80945;BME280;70400;50.934;11.590;2023-12-20T00:17:16;99813.47;;;5.13;85.83
80945;BME280;70400;50.934;11.590;2023-12-20T00:18:07;99813.59;;;5.11;86.26
80945;BME280;70400;50.934;11.590;2023-12-20T00:18:58;99820.22;;;5.04;86.46
80945;BME280;70400;50.934;11.590;2023-12-20T00:19:49;99816.66;;;5.05;86.82
80945;BME280;70400;50.934;11.590;2023-12-20T00:20:39;99816.56;;;5.07;86.57
80945;BME280;70400;50.934;11.590;2023-12-20T00:21:30;99814.03;;;5.05;87.00
80945;BME280;70400;50.934;11.590;2023-12-20T00:22:21;99816.56;;;5.07;86.83
80945;BME280;70400;50.934;11.590;2023-12-20T00:23:12;99811.09;;;5.10;87.01
80945;BME280;70400;50.934;11.590;2023-12-20T00:24:03;99811.94;;;5.10;86.78
80945;BME280;70400;50.934;11.590;2023-12-20T00:24:54;99807.75;;;5.08;86.60
80945;BME280;70400;50.934;11.590;2023-12-20T00:25:45;99814.53;;;5.10;86.65
80945;BME280;70400;50.934;11.590;2023-12-20T00:26:36;99812.75;;;5.11;86.71
80945;BME280;70400;50.934;11.590;2023-12-20T00:27:26;99815.13;;;5.14;86.38
80945;BME280;70400;50.934;11.590;2023-12-20T00:28:17;99811.47;;;5.16;86.19
80945;BME280;70400;50.934;11.590;2023-12-20T00:29:08;99808.59;;;5.08;86.47
80945;BME280;70400;50.934;11.590;2023-12-20T00:29:59;99805.75;;;5.11;86.39
80945;BME280;70400;50.934;11.590;2023-12-20T00:30:50;99810.47;;;5.06;85.84
80945;BME280;70400;50.934;11.590;2023-12-20T00:31:41;99810.59;;;5.05;86.56
80945;BME280;70400;50.934;11.590;2023-12-20T00:32:32;99799.44;;;5.03;86.57
80945;BME280;70400;50.934;11.590;2023-12-20T00:33:23;99799.81;;;5.09;86.65
80945;BME280;70400;50.934;11.590;2023-12-20T00:34:14;99797.91;;;5.11;86.78
80945;BME280;70400;50.934;11.590;2023-12-20T00:35:05;99801.88;;;5.17;86.21
80945;BME280;70400;50.934;11.590;2023-12-20T00:35:56;99798.38;;;5.05;86.51
80945;BME280;70400;50.934;11.590;2023-12-20T00:36:46;99795.03;;;5.03;86.44
80945;BME280;70400;50.934;11.590;2023-12-20T00:37:38;99802.53;;;5.08;86.53
80945;BME280;70400;50.934;11.590;2023-12-20T00:38:29;99794.47;;;5.11;86.15
80945;BME280;70400;50.934;11.590;2023-12-20T00:39:19;99790.06;;;5.11;86.19
80945;BME280;70400;50.934;11.590;2023-12-20T00:40:11;99794.78;;;5.06;86.45
80945;BME280;70400;50.934;11.590;2023-12-20T00:41:02;99800.75;;;5.08;86.60
80945;BME280;70400;50.934;11.590;2023-12-20T00:41:53;99794.69;;;5.08;86.44
80945;BME280;70400;50.934;11.590;2023-12-20T00:42:43;99799.09;;;5.07;86.58
80945;BME280;70400;50.934;11.590;2023-12-20T00:43:34;99800.03;;;5.06;86.79
80945;BME280;70400;50.934;11.590;2023-12-20T00:44:25;99803.69;;;5.04;87.20
80945;BME280;70400;50.934;11.590;2023-12-20T00:45:16;99798.81;;;4.99;87.53
80945;BME280;70400;50.934;11.590;2023-12-20T00:46:07;99803.91;;;5.00;87.50
80945;BME280;70400;50.934;11.590;2023-12-20T00:46:59;99800.47;;;5.00;87.68
80945;BME280;70400;50.934;11.590;2023-12-20T00:47:50;99801.31;;;5.00;87.57
80945;BME280;70400;50.934;11.590;2023-12-20T00:48:41;99800.88;;;5.07;87.45
80945;BME280;70400;50.934;11.590;2023-12-20T00:49:32;99802.13;;;5.01;87.73
80945;BME280;70400;50.934;11.590;2023-12-20T00:50:24;99812.59;;;5.01;87.67
80945;BME280;70400;50.934;11.590;2023-12-20T00:51:19;99806.53;;;5.00;87.28
80945;BME280;70400;50.934;11.590;2023-12-20T00:52:10;99801.56;;;5.09;87.62
80945;BME280;70400;50.934;11.590;2023-12-20T00:53:01;99808.34;;;5.11;87.10
80945;BME280;70400;50.934;11.590;2023-12-20T00:53:52;99807.03;;;5.06;87.51
80945;BME280;70400;50.934;11.590;2023-12-20T00:54:45;99810.47;;;5.06;87.14
80945;BME280;70400;50.934;11.590;2023-12-20T00:55:36;99807.25;;;5.03;86.98
80945;BME280;70400;50.934;11.590;2023-12-20T00:56:27;99810.09;;;4.99;87.45
80945;BME280;70400;50.934;11.590;2023-12-20T00:57:18;99804.66;;;5.03;87.44
80945;BME280;70400;50.934;11.590;2023-12-20T00:58:09;99803.91;;;5.00;87.19
80945;BME280;70400;50.934;11.590;2023-12-20T00:59:00;99802.13;;;5.01;87.14
80945;BME280;70400;50.934;11.590;2023-12-20T00:59:51;99799.44;;;5.03;86.65
80945;BME280;70400;50.934;11.590;2023-12-20T01:00:41;99801.72;;;5.07;86.87
80945;BME280;70400;50.934;11.590;2023-12-20T01:01:34;99788.16;;;5.02;87.30
80945;BME280;70400;50.934;11.590;2023-12-20T01:02:25;99790.34;;;4.95;87.38
80945;BME280;70400;50.934;11.590;2023-12-20T01:03:16;99790.13;;;4.98;87.83
80945;BME280;70400;50.934;11.590;2023-12-20T01:04:07;99787.09;;;5.05;87.31
80945;BME280;70400;50.934;11.590;2023-12-20T01:04:58;99788.63;;;5.07;86.91
80945;BME280;70400;50.934;11.590;2023-12-20T01:05:49;99790.53;;;5.05;86.84
80945;BME280;70400;50.934;11.590;2023-12-20T01:06:40;99788.38;;;4.99;86.99
80945;BME280;70400;50.934;11.590;2023-12-20T01:07:31;99787.50;;;4.98;87.34
80945;BME280;70400;50.934;11.590;2023-12-20T01:08:22;99789.31;;;4.98;87.28
80945;BME280;70400;50.934;11.590;2023-12-20T01:09:13;99790.34;;;4.95;87.39
80945;BME280;70400;50.934;11.590;2023-12-20T01:10:05;99784.31;;;4.95;87.18
80945;BME280;70400;50.934;11.590;2023-12-20T01:10:55;99785.25;;;4.94;87.25
80945;BME280;70400;50.934;11.590;2023-12-20T01:11:46;99792.47;;;4.90;87.42
80945;BME280;70400;50.934;11.590;2023-12-20T01:12:37;99787.88;;;4.94;87.24
80945;BME280;70400;50.934;11.590;2023-12-20T01:13:28;99784.31;;;4.95;87.63
80945;BME280;70400;50.934;11.590;2023-12-20T01:14:19;99784.53;;;4.92;87.04
80945;BME280;70400;50.934;11.590;2023-12-20T01:15:10;99789.53;;;4.95;86.97
80945;BME280;70400;50.934;11.590;2023-12-20T01:16:01;99785.25;;;4.94;87.10
80945;BME280;70400;50.934;11.590;2023-12-20T01:16:52;99786.59;;;4.99;86.82
80945;BME280;70400;50.934;11.590;2023-12-20T01:17:42;99782.75;;;4.92;87.13
80945;BME280;70400;50.934;11.590;2023-12-20T01:18:34;99781.78;;;4.93;87.26
80945;BME280;70400;50.934;11.590;2023-12-20T01:19:25;99781.09;;;4.91;87.54
80945;BME280;70400;50.934;11.590;2023-12-20T01:20:17;99781.69;;;4.95;87.91
80945;BME280;70400;50.934;11.590;2023-12-20T01:21:10;99782.75;;;4.92;87.61
80945;BME280;70400;50.934;11.590;2023-12-20T01:22:01;99781.59;;;4.96;87.97
80945;BME280;70400;50.934;11.590;2023-12-20T01:22:52;99780.03;;;4.94;88.14
80945;BME280;70400;50.934;11.590;2023-12-20T01:23:43;99782.28;;;4.98;87.55
80945;BME280;70400;50.934;11.590;2023-12-20T01:24:34;99776.00;;;5.01;87.73
80945;BME280;70400;50.934;11.590;2023-12-20T01:25:25;99779.25;;;5.05;87.51
80945;BME280;70400;50.934;11.590;2023-12-20T01:26:15;99774.13;;;5.03;87.68
80945;BME280;70400;50.934;11.590;2023-12-20T01:27:07;99777.56;;;5.04;87.51
80945;BME280;70400;50.934;11.590;2023-12-20T01:27:58;99771.41;;;5.05;87.43
80945;BME280;70400;50.934;11.590;2023-12-20T01:28:49;99775.06;;;5.02;87.69
80945;BME280;70400;50.934;11.590;2023-12-20T01:29:39;99771.63;;;5.02;87.31
80945;BME280;70400;50.934;11.590;2023-12-20T01:30:30;99762.84;;;5.03;87.11
80945;BME280;70400;50.934;11.590;2023-12-20T01:31:21;99766.41;;;5.02;87.16
80945;BME280;70400;50.934;11.590;2023-12-20T01:32:12;99773.63;;;4.98;87.26
80945;BME280;70400;50.934;11.590;2023-12-20T01:33:03;99767.97;;;5.04;87.54
80945;BME280;70400;50.934;11.590;2023-12-20T01:33:54;99766.03;;;5.06;86.99
80945;BME280;70400;50.934;11.590;2023-12-20T01:34:45;99768.47;;;5.09;87.12
80945;BME280;70400;50.934;11.590;2023-12-20T01:35:36;99766.91;;;5.07;87.04
80945;BME280;70400;50.934;11.590;2023-12-20T01:36:26;99770.78;;;5.01;86.99
80945;BME280;70400;50.934;11.590;2023-12-20T01:37:17;99776.22;;;4.98;87.31
80945;BME280;70400;50.934;11.590;2023-12-20T01:38:08;99774.59;;;4.97;87.37
80945;BME280;70400;50.934;11.590;2023-12-20T01:38:59;99774.59;;;4.97;87.30
80945;BME280;70400;50.934;11.590;2023-12-20T01:39:50;99768.88;;;5.03;86.87
80945;BME280;70400;50.934;11.590;2023-12-20T01:40:41;99774.94;;;5.04;86.81
80945;BME280;70400;50.934;11.590;2023-12-20T01:41:32;99770.09;;;4.99;87.10
80945;BME280;70400;50.934;11.590;2023-12-20T01:42:23;99771.63;;;5.02;86.87
80945;BME280;70400;50.934;11.590;2023-12-20T01:43:14;99763.44;;;5.06;87.06
80945;BME280;70400;50.934;11.590;2023-12-20T01:44:05;99763.66;;;5.03;87.39
80945;BME280;70400;50.934;11.590;2023-12-20T01:44:55;99761.88;;;5.04;86.54
80945;BME280;70400;50.934;11.590;2023-12-20T01:45:47;99757.94;;;4.98;86.83
80945;BME280;70400;50.934;11.590;2023-12-20T01:46:38;99767.56;;;4.97;87.17
80945;BME280;70400;50.934;11.590;2023-12-20T01:47:29;99751.31;;;5.05;86.60
80945;BME280;70400;50.934;11.590;2023-12-20T01:48:20;99755.81;;;5.03;86.79
80945;BME280;70400;50.934;11.590;2023-12-20T01:49:11;99750.59;;;5.03;86.61
80945;BME280;70400;50.934;11.590;2023-12-20T01:50:03;99755.22;;;4.99;86.95
80945;BME280;70400;50.934;11.590;2023-12-20T01:50:55;99755.81;;;5.03;86.63
80945;BME280;70400;50.934;11.590;2023-12-20T01:51:46;99752.84;;;4.96;87.16
80945;BME280;70400;50.934;11.590;2023-12-20T01:52:38;99757.00;;;4.99;87.67
80945;BME280;70400;50.934;11.590;2023-12-20T01:53:29;99754.41;;;4.99;87.29
80945;BME280;70400;50.934;11.590;2023-12-20T01:54:20;99752.00;;;4.96;87.31
80945;BME280;70400;50.934;11.590;2023-12-20T01:55:11;99761.84;;;4.92;87.79
80945;BME280;70400;50.934;11.590;2023-12-20T01:56:06;99750.44;;;4.93;87.70
80945;BME280;70400;50.934;11.590;2023-12-20T01:56:57;99750.94;;;4.98;87.52
80945;BME280;70400;50.934;11.590;2023-12-20T01:57:48;99747.63;;;4.96;86.95
80945;BME280;70400;50.934;11.590;2023-12-20T01:58:45;99744.66;;;5.01;87.21
80945;BME280;70400;50.934;11.590;2023-12-20T01:59:39;99751.09;;;5.08;86.83
80945;BME280;70400;50.934;11.590;2023-12-20T02:00:30;99747.66;;;5.08;86.92
80945;BME280;70400;50.934;11.590;2023-12-20T02:01:21;99741.47;;;5.09;86.70
80945;BME280;70400;50.934;11.590;2023-12-20T02:02:13;99742.41;;;5.08;86.90
80945;BME280;70400;50.934;11.590;2023-12-20T02:03:04;99745.75;;;5.10;86.38
80945;BME280;70400;50.934;11.590;2023-12-20T02:03:56;99739.56;;;5.11;86.61
80945;BME280;70400;50.934;11.590;2023-12-20T02:04:48;99743.88;;;5.12;86.36
80945;BME280;70400;50.934;11.590;2023-12-20T02:05:39;99739.34;;;5.14;86.20
80945;BME280;70400;50.934;11.590;2023-12-20T02:06:31;99743.97;;;5.10;85.74
80945;BME280;70400;50.934;11.590;2023-12-20T02:07:24;99751.09;;;5.08;86.63
80945;BME280;70400;50.934;11.590;2023-12-20T02:08:15;99744.31;;;5.06;86.76
80945;BME280;70400;50.934;11.590;2023-12-20T02:09:09;99747.97;;;5.03;86.83
80945;BME280;70400;50.934;11.590;2023-12-20T02:09:59;99752.38;;;5.03;87.03
80945;BME280;70400;50.934;11.590;2023-12-20T02:10:50;99742.25;;;4.98;87.30
80945;BME280;70400;50.934;11.590;2023-12-20T02:11:41;99742.75;;;5.03;87.15
80945;BME280;70400;50.934;11.590;2023-12-20T02:12:32;99752.38;;;5.03;87.68
80945;BME280;70400;50.934;11.590;2023-12-20T02:13:23;99745.59;;;5.00;87.64
80945;BME280;70400;50.934;11.590;2023-12-20T02:14:14;99741.84;;;5.04;87.17
80945;BME280;70400;50.934;11.590;2023-12-20T02:15:05;99744.88;;;4.98;87.27
80945;BME280;70400;50.934;11.590;2023-12-20T02:15:56;99740.72;;;4.95;87.24
80945;BME280;70400;50.934;11.590;2023-12-20T02:16:48;99740.28;;;5.02;87.37
80945;BME280;70400;50.934;11.590;2023-12-20T02:17:39;99737.53;;;5.03;87.51
80945;BME280;70400;50.934;11.590;2023-12-20T02:18:30;99731.56;;;5.01;86.91
80945;BME280;70400;50.934;11.590;2023-12-20T02:19:22;99737.44;;;5.05;87.03
80945;BME280;70400;50.934;11.590;2023-12-20T02:20:13;99736.47;;;5.06;86.75
80945;BME280;70400;50.934;11.590;2023-12-20T02:21:05;99737.28;;;5.06;86.66
80945;BME280;70400;50.934;11.590;2023-12-20T02:22:12;99736.22;;;5.09;86.79
80945;BME280;70400;50.934;11.590;2023-12-20T02:23:03;99732.31;;;5.03;86.69
80945;BME280;70400;50.934;11.590;2023-12-20T02:23:54;99737.03;;;4.98;87.04
80945;BME280;70400;50.934;11.590;2023-12-20T02:24:44;99730.88;;;4.99;87.30
80945;BME280;70400;50.934;11.590;2023-12-20T02:25:35;99737.44;;;5.05;87.25
80945;BME280;70400;50.934;11.590;2023-12-20T02:26:27;99737.75;;;5.00;87.44
80945;BME280;70400;50.934;11.590;2023-12-20T02:27:19;99741.09;;;5.02;87.89
80945;BME280;70400;50.934;11.590;2023-12-20T02:28:10;99730.31;;;5.07;87.72
80945;BME280;70400;50.934;11.590;2023-12-20T02:29:02;99730.53;;;5.04;87.34
80945;BME280;70400;50.934;11.590;2023-12-20T02:29:53;99732.94;;;5.07;86.86
80945;BME280;70400;50.934;11.590;2023-12-20T02:30:44;99728.28;;;4.99;87.33
80945;BME280;70400;50.934;11.590;2023-12-20T02:31:35;99730.41;;;5.05;86.96
80945;BME280;70400;50.934;11.590;2023-12-20T02:32:25;99729.81;;;5.02;87.43
80945;BME280;70400;50.934;11.590;2023-12-20T02:33:17;99731.16;;;5.07;87.42
80945;BME280;70400;50.934;11.590;2023-12-20T02:34:07;99732.78;;;5.08;86.89
80945;BME280;70400;50.934;11.590;2023-12-20T02:34:58;99730.53;;;5.04;87.07
80945;BME280;70400;50.934;11.590;2023-12-20T02:35:49;99729.34;;;5.08;87.28
80945;BME280;70400;50.934;11.590;2023-12-20T02:36:40;99729.47;;;5.06;87.32
80945;BME280;70400;50.934;11.590;2023-12-20T02:37:32;99721.63;;;5.06;87.67
80945;BME280;70400;50.934;11.590;2023-12-20T02:38:24;99722.91;;;5.00;87.40
80945;BME280;70400;50.934;11.590;2023-12-20T02:39:15;99725.66;;;4.99;87.80
80945;BME280;70400;50.934;11.590;2023-12-20T02:40:06;99722.81;;;5.02;87.61
80945;BME280;70400;50.934;11.590;2023-12-20T02:40:57;99728.88;;;5.03;87.88
80945;BME280;70400;50.934;11.590;2023-12-20T02:41:48;99732.06;;;5.06;87.19
80945;BME280;70400;50.934;11.590;2023-12-20T02:42:39;99727.56;;;5.08;87.77
80945;BME280;70400;50.934;11.590;2023-12-20T02:43:30;99728.13;;;5.00;87.42
80945;BME280;70400;50.934;11.590;2023-12-20T02:44:21;99730.66;;;5.02;87.80
80945;BME280;70400;50.934;11.590;2023-12-20T02:45:12;99729.59;;;5.05;87.77
80945;BME280;70400;50.934;11.590;2023-12-20T02:46:03;99728.88;;;5.03;88.23
80945;BME280;70400;50.934;11.590;2023-12-20T02:46:54;99730.91;;;5.10;87.88
80945;BME280;70400;50.934;11.590;2023-12-20T02:47:45;99724.72;;;5.11;87.66
80945;BME280;70400;50.934;11.590;2023-12-20T02:48:36;99731.88;;;5.09;87.65
80945;BME280;70400;50.934;11.590;2023-12-20T02:49:27;99732.34;;;5.14;88.11
80945;BME280;70400;50.934;11.590;2023-12-20T02:50:18;99725.09;;;5.18;87.62
80945;BME280;70400;50.934;11.590;2023-12-20T02:51:09;99732.13;;;5.17;88.06
80945;BME280;70400;50.934;11.590;2023-12-20T02:52:02;99724.38;;;5.16;87.68
80945;BME280;70400;50.934;11.590;2023-12-20T02:52:55;99722.81;;;5.13;87.62
80945;BME280;70400;50.934;11.590;2023-12-20T02:53:47;99719.88;;;5.18;87.40
80945;BME280;70400;50.934;11.590;2023-12-20T02:54:38;99726.41;;;5.12;87.71
80945;BME280;70400;50.934;11.590;2023-12-20T02:55:29;99719.97;;;5.16;87.57
80945;BME280;70400;50.934;11.590;2023-12-20T02:56:20;99720.78;;;5.06;87.83
80945;BME280;70400;50.934;11.590;2023-12-20T02:57:11;99723.88;;;5.11;88.05
80945;BME280;70400;50.934;11.590;2023-12-20T02:58:04;99719.88;;;5.07;88.56
80945;BME280;70400;50.934;11.590;2023-12-20T02:58:55;99718.91;;;5.08;88.56
80945;BME280;70400;50.934;11.590;2023-12-20T02:59:46;99721.75;;;5.05;88.66
80945;BME280;70400;50.934;11.590;2023-12-20T03:00:37;99719.38;;;5.13;87.95
80945;BME280;70400;50.934;11.590;2023-12-20T03:01:28;99713.09;;;5.15;87.86
80945;BME280;70400;50.934;11.590;2023-12-20T03:02:20;99720.22;;;5.13;87.92
80945;BME280;70400;50.934;11.590;2023-12-20T03:03:10;99711.44;;;5.14;87.77
80945;BME280;70400;50.934;11.590;2023-12-20T03:04:01;99714.06;;;5.14;87.44
80945;BME280;70400;50.934;11.590;2023-12-20T03:04:52;99710.59;;;5.14;87.91
80945;BME280;70400;50.934;11.590;2023-12-20T03:05:45;99709.66;;;5.15;87.62
80945;BME280;70400;50.934;11.590;2023-12-20T03:06:36;99706.22;;;5.14;87.53
80945;BME280;70400;50.934;11.590;2023-12-20T03:07:27;99715.00;;;5.13;87.85
80945;BME280;70400;50.934;11.590;2023-12-20T03:08:18;99714.25;;;5.11;87.78
80945;BME280;70400;50.934;11.590;2023-12-20T03:09:09;99709.59;;;5.04;87.89
80945;BME280;70400;50.934;11.590;2023-12-20T03:10:00;99711.53;;;5.02;88.20
80945;BME280;70400;50.934;11.590;2023-12-20T03:11:09;99705.25;;;5.04;87.97
80945;BME280;70400;50.934;11.590;2023-12-20T03:12:00;99710.47;;;5.04;87.76
80945;BME280;70400;50.934;11.590;2023-12-20T03:12:51;99704.78;;;5.10;87.33
80945;BME280;70400;50.934;11.590;2023-12-20T03:13:42;99707.97;;;5.14;86.84
80945;BME280;70400;50.934;11.590;2023-12-20T03:14:32;99714.25;;;5.11;86.98
80945;BME280;70400;50.934;11.590;2023-12-20T03:15:23;99709.75;;;5.13;87.33
80945;BME280;70400;50.934;11.590;2023-12-20T03:16:14;99707.38;;;5.10;87.74
80945;BME280;70400;50.934;11.590;2023-12-20T03:17:07;99713.00;;;5.17;87.58
80945;BME280;70400;50.934;11.590;2023-12-20T03:17:57;99714.31;;;5.22;86.94
80945;BME280;70400;50.934;11.590;2023-12-20T03:18:50;99708.59;;;5.17;87.31
80945;BME280;70400;50.934;11.590;2023-12-20T03:19:41;99716.53;;;5.16;87.61
80945;BME280;70400;50.934;11.590;2023-12-20T03:20:31;99717.25;;;5.18;87.81
80945;BME280;70400;50.934;11.590;2023-12-20T03:21:25;99706.09;;;5.16;87.46
80945;BME280;70400;50.934;11.590;2023-12-20T03:22:15;99707.63;;;5.18;87.51
80945;BME280;70400;50.934;11.590;2023-12-20T03:23:06;99707.78;;;5.17;87.42
80945;BME280;70400;50.934;11.590;2023-12-20T03:23:57;99708.69;;;5.16;87.11
80945;BME280;70400;50.934;11.590;2023-12-20T03:24:48;99710.59;;;5.14;87.40
80945;BME280;70400;50.934;11.590;2023-12-20T03:25:40;99705.97;;;5.17;87.12
80945;BME280;70400;50.934;11.590;2023-12-20T03:26:30;99709.19;;;5.21;86.86
80945;BME280;70400;50.934;11.590;2023-12-20T03:27:21;99699.69;;;5.20;87.01
80945;BME280;70400;50.934;11.590;2023-12-20T03:28:14;99694.56;;;5.18;87.01
80945;BME280;70400;50.934;11.590;2023-12-20T03:29:06;99692.91;;;5.17;86.40
80945;BME280;70400;50.934;11.590;2023-12-20T03:29:57;99690.69;;;5.24;86.29
80945;BME280;70400;50.934;11.590;2023-12-20T03:30:48;99692.66;;;5.20;86.41
80945;BME280;70400;50.934;11.590;2023-12-20T03:31:39;99692.44;;;5.23;86.66
80945;BME280;70400;50.934;11.590;2023-12-20T03:32:30;99696.25;;;5.19;87.24
80945;BME280;70400;50.934;11.590;2023-12-20T03:33:21;99701.25;;;5.22;87.17
80945;BME280;70400;50.934;11.590;2023-12-20T03:34:14;99698.72;;;5.21;86.81
80945;BME280;70400;50.934;11.590;2023-12-20T03:35:06;99700.75;;;5.17;87.30
80945;BME280;70400;50.934;11.590;2023-12-20T03:35:56;99710.97;;;5.20;87.16
80945;BME280;70400;50.934;11.590;2023-12-20T03:36:47;99710.25;;;5.18;87.39
80945;BME280;70400;50.934;11.590;2023-12-20T03:37:38;99708.84;;;5.14;87.59
80945;BME280;70400;50.934;11.590;2023-12-20T03:38:29;99708.84;;;5.14;87.71
80945;BME280;70400;50.934;11.590;2023-12-20T03:39:20;99704.44;;;5.15;87.70
80945;BME280;70400;50.934;11.590;2023-12-20T03:40:11;99705.25;;;5.15;88.00
80945;BME280;70400;50.934;11.590;2023-12-20T03:41:02;99693.00;;;5.16;87.78
80945;BME280;70400;50.934;11.590;2023-12-20T03:41:53;99698.47;;;5.13;87.47
80945;BME280;70400;50.934;11.590;2023-12-20T03:42:43;99700.03;;;5.15;87.71
80945;BME280;70400;50.934;11.590;2023-12-20T03:43:34;99691.22;;;5.16;87.21
80945;BME280;70400;50.934;11.590;2023-12-20T03:44:25;99702.16;;;5.10;87.23
80945;BME280;70400;50.934;11.590;2023-12-20T03:45:16;99701.09;;;5.13;87.35
80945;BME280;70400;50.934;11.590;2023-12-20T03:46:10;99705.34;;;5.14;87.33
80945;BME280;70400;50.934;11.590;2023-12-20T03:47:01;99707.97;;;5.14;88.02
80945;BME280;70400;50.934;11.590;2023-12-20T03:47:52;99713.81;;;5.17;87.75
80945;BME280;70400;50.934;11.590;2023-12-20T03:48:47;99713.00;;;5.17;87.39
80945;BME280;70400;50.934;11.590;2023-12-20T03:49:38;99712.63;;;5.21;87.38
80945;BME280;70400;50.934;11.590;2023-12-20T03:50:29;99710.88;;;5.22;86.97
80945;BME280;70400;50.934;11.590;2023-12-20T03:51:20;99703.13;;;5.20;87.39
80945;BME280;70400;50.934;11.590;2023-12-20T03:52:11;99700.84;;;5.16;87.28
80945;BME280;70400;50.934;11.590;2023-12-20T03:53:03;99701.81;;;5.15;87.43
80945;BME280;70400;50.934;11.590;2023-12-20T03:53:54;99702.41;;;5.18;87.55
80945;BME280;70400;50.934;11.590;2023-12-20T03:54:45;99710.00;;;5.21;87.04
80945;BME280;70400;50.934;11.590;2023-12-20T03:55:36;99707.97;;;5.14;87.09
80945;BME280;70400;50.934;11.590;2023-12-20T03:56:26;99706.09;;;5.16;87.33
80945;BME280;70400;50.934;11.590;2023-12-20T03:57:17;99707.88;;;5.15;86.99
80945;BME280;70400;50.934;11.590;2023-12-20T03:58:08;99708.97;;;5.24;87.00
80945;BME280;70400;50.934;11.590;2023-12-20T03:58:59;99712.28;;;5.26;87.15
80945;BME280;70400;50.934;11.590;2023-12-20T03:59:50;99715.47;;;5.18;87.23
80945;BME280;70400;50.934;11.590;2023-12-20T04:00:41;99710.38;;;5.17;87.64
80945;BME280;70400;50.934;11.590;2023-12-20T04:01:35;99713.09;;;5.15;87.55
80945;BME280;70400;50.934;11.590;2023-12-20T04:02:26;99718.31;;;5.15;87.51
80945;BME280;70400;50.934;11.590;2023-12-20T04:03:17;99726.50;;;5.11;87.66
80945;BME280;70400;50.934;11.590;2023-12-20T04:04:08;99732.56;;;5.11;88.11
80945;BME280;70400;50.934;11.590;2023-12-20T04:04:59;99728.78;;;5.15;88.14
80945;BME280;70400;50.934;11.590;2023-12-20T04:05:50;99733.66;;;5.20;88.11
80945;BME280;70400;50.934;11.590;2023-12-20T04:06:40;99737.69;;;5.13;88.16
80945;BME280;70400;50.934;11.590;2023-12-20T04:07:32;99742.31;;;5.09;88.70
80945;BME280;70400;50.934;11.590;2023-12-20T04:08:23;99740.63;;;5.08;88.97
80945;BME280;70400;50.934;11.590;2023-12-20T04:09:14;99737.44;;;5.16;88.85
80945;BME280;70400;50.934;11.590;2023-12-20T04:10:05;99744.72;;;5.23;88.05
80945;BME280;70400;50.934;11.590;2023-12-20T04:10:56;99737.13;;;5.20;87.71
80945;BME280;70400;50.934;11.590;2023-12-20T04:11:47;99735.56;;;5.18;87.62
80945;BME280;70400;50.934;11.590;2023-12-20T04:12:39;99734.50;;;5.20;87.89
80945;BME280;70400;50.934;11.590;2023-12-20T04:13:30;99735.47;;;5.19;87.70
80945;BME280;70400;50.934;11.590;2023-12-20T04:14:21;99731.97;;;5.19;87.61
80945;BME280;70400;50.934;11.590;2023-12-20T04:15:12;99734.06;;;5.27;87.58
80945;BME280;70400;50.934;11.590;2023-12-20T04:16:05;99733.19;;;5.26;87.16
80945;BME280;70400;50.934;11.590;2023-12-20T04:16:56;99734.75;;;5.29;87.25
80945;BME280;70400;50.934;11.590;2023-12-20T04:17:47;99727.97;;;5.26;87.14
80945;BME280;70400;50.934;11.590;2023-12-20T04:18:38;99719.78;;;5.31;87.40
80945;BME280;70400;50.934;11.590;2023-12-20T04:19:31;99726.56;;;5.33;87.80
80945;BME280;70400;50.934;11.590;2023-12-20T04:20:22;99721.34;;;5.33;87.75
80945;BME280;70400;50.934;11.590;2023-12-20T04:21:13;99722.03;;;5.24;87.94
80945;BME280;70400;50.934;11.590;2023-12-20T04:22:04;99724.88;;;5.21;87.85
80945;BME280;70400;50.934;11.590;2023-12-20T04:22:55;99717.75;;;5.23;88.20
80945;BME280;70400;50.934;11.590;2023-12-20T04:23:46;99723.22;;;5.20;88.36
80945;BME280;70400;50.934;11.590;2023-12-20T04:24:36;99722.38;;;5.19;88.12
80945;BME280;70400;50.934;11.590;2023-12-20T04:25:27;99718.81;;;5.20;87.91
80945;BME280;70400;50.934;11.590;2023-12-20T04:26:18;99718.72;;;5.22;88.01
80945;BME280;70400;50.934;11.590;2023-12-20T04:27:09;99722.41;;;5.31;87.74
80945;BME280;70400;50.934;11.590;2023-12-20T04:28:00;99724.19;;;5.30;87.54
80945;BME280;70400;50.934;11.590;2023-12-20T04:28:51;99722.06;;;5.35;87.45
80945;BME280;70400;50.934;11.590;2023-12-20T04:29:45;99737.03;;;5.33;87.75
80945;BME280;70400;50.934;11.590;2023-12-20T04:30:38;99740.59;;;5.32;88.10
80945;BME280;70400;50.934;11.590;2023-12-20T04:31:29;99739.16;;;5.28;88.31